sensor_id;sensor_type;location;lat;lon;timestamp;P1;durP1;ratioP1;P2;durP2;ratioP2
7047;SDS011;3565;53.254;10.352;2024-03-25T00:02:11;6.83;;;2.97;;
7047;SDS011;3565;53.254;10.352;2024-03-25T00:07:18;7.07;;;3.00;;
7047;SDS011;3565;53.254;10.352;2024-03-25T00:12:25;7.63;;;3.53;;
7047;SDS011;3565;53.254;10.352;2024-03-25T00:14:54;5.30;;;2.93;;
7047;SDS011;3565;53.254;10.352;2024-03-25T00:17:23;11.17;;;3.07;;
7047;SDS011;3565;53.254;10.352;2024-03-25T00:22:29;7.30;;;3.40;;
7047;SDS011;3565;53.254;10.352;2024-03-25T00:24:58;7.23;;;3.20;;
7047;SDS011;3565;53.254;10.352;2024-03-25T00:27:27;11.07;;;3.17;;
7047;SDS011;3565;53.254;10.352;2024-03-25T00:32:34;5.33;;;2.83;;
7047;SDS011;3565;53.254;10.352;2024-03-25T00:35:04;7.70;;;2.70;;
7047;SDS011;3565;53.254;10.352;2024-03-25T00:37:34;9.10;;;2.70;;
7047;SDS011;3565;53.254;10.352;2024-03-25T00:40:04;10.83;;;2.87;;
7047;SDS011;3565;53.254;10.352;2024-03-25T00:45:13;5.07;;;2.57;;
7047;SDS011;3565;53.254;10.352;2024-03-25T00:47:42;6.33;;;2.83;;
7047;SDS011;3565;53.254;10.352;2024-03-25T00:50:15;6.40;;;2.47;;
7047;SDS011;3565;53.254;10.352;2024-03-25T00:52:44;6.03;;;2.67;;
7047;SDS011;3565;53.254;10.352;2024-03-25T00:55:13;6.93;;;2.57;;
7047;SDS011;3565;53.254;10.352;2024-03-25T01:00:20;6.63;;;2.33;;
7047;SDS011;3565;53.254;10.352;2024-03-25T01:05:26;6.30;;;2.53;;
7047;SDS011;3565;53.254;10.352;2024-03-25T01:10:33;9.57;;;2.77;;
7047;SDS011;3565;53.254;10.352;2024-03-25T01:13:02;7.57;;;2.30;;
7047;SDS011;3565;53.254;10.352;2024-03-25T01:15:32;5.33;;;2.50;;
7047;SDS011;3565;53.254;10.352;2024-03-25T01:20:45;5.50;;;2.60;;
7047;SDS011;3565;53.254;10.352;2024-03-25T01:23:16;6.83;;;2.57;;
7047;SDS011;3565;53.254;10.352;2024-03-25T01:25:46;6.10;;;2.47;;
7047;SDS011;3565;53.254;10.352;2024-03-25T01:28:16;9.77;;;2.43;;
7047;SDS011;3565;53.254;10.352;2024-03-25T01:33:13;7.17;;;2.47;;
7047;SDS011;3565;53.254;10.352;2024-03-25T01:35:43;4.47;;;2.00;;
7047;SDS011;3565;53.254;10.352;2024-03-25T01:38:13;4.83;;;2.30;;
7047;SDS011;3565;53.254;10.352;2024-03-25T01:43:20;7.53;;;2.67;;
7047;SDS011;3565;53.254;10.352;2024-03-25T01:45:50;5.07;;;2.20;;
7047;SDS011;3565;53.254;10.352;2024-03-25T01:48:30;6.67;;;2.83;;
7047;SDS011;3565;53.254;10.352;2024-03-25T01:53:39;7.97;;;2.43;;
7047;SDS011;3565;53.254;10.352;2024-03-25T01:56:10;6.40;;;2.80;;
7047;SDS011;3565;53.254;10.352;2024-03-25T01:58:41;5.73;;;2.60;;
7047;SDS011;3565;53.254;10.352;2024-03-25T02:01:10;8.73;;;2.93;;
7047;SDS011;3565;53.254;10.352;2024-03-25T02:06:19;8.83;;;2.97;;
7047;SDS011;3565;53.254;10.352;2024-03-25T02:08:50;3.10;;;2.37;;
7047;SDS011;3565;53.254;10.352;2024-03-25T02:11:20;4.00;;;2.47;;
7047;SDS011;3565;53.254;10.352;2024-03-25T02:16:27;5.20;;;2.67;;
7047;SDS011;3565;53.254;10.352;2024-03-25T02:18:57;8.77;;;2.43;;
7047;SDS011;3565;53.254;10.352;2024-03-25T02:21:35;6.90;;;2.37;;
7047;SDS011;3565;53.254;10.352;2024-03-25T02:26:42;2.97;;;2.40;;
7047;SDS011;3565;53.254;10.352;2024-03-25T02:29:11;7.73;;;2.70;;
7047;SDS011;3565;53.254;10.352;2024-03-25T02:34:17;3.20;;;2.10;;
7047;SDS011;3565;53.254;10.352;2024-03-25T02:36:47;6.53;;;2.50;;
7047;SDS011;3565;53.254;10.352;2024-03-25T02:39:16;4.43;;;2.47;;
7047;SDS011;3565;53.254;10.352;2024-03-25T02:44:23;6.40;;;2.60;;
7047;SDS011;3565;53.254;10.352;2024-03-25T02:46:56;7.03;;;2.53;;
7047;SDS011;3565;53.254;10.352;2024-03-25T02:49:26;5.70;;;2.10;;
7047;SDS011;3565;53.254;10.352;2024-03-25T02:54:35;3.33;;;2.20;;
7047;SDS011;3565;53.254;10.352;2024-03-25T02:57:05;5.70;;;2.60;;
7047;SDS011;3565;53.254;10.352;2024-03-25T02:59:34;3.03;;;2.20;;
7047;SDS011;3565;53.254;10.352;2024-03-25T03:04:40;4.13;;;2.30;;
7047;SDS011;3565;53.254;10.352;2024-03-25T03:07:10;4.13;;;2.40;;
7047;SDS011;3565;53.254;10.352;2024-03-25T03:09:39;4.53;;;2.07;;
7047;SDS011;3565;53.254;10.352;2024-03-25T03:14:45;5.90;;;2.53;;
7047;SDS011;3565;53.254;10.352;2024-03-25T03:17:16;4.57;;;2.33;;
7047;SDS011;3565;53.254;10.352;2024-03-25T03:19:46;6.20;;;2.10;;
7047;SDS011;3565;53.254;10.352;2024-03-25T03:22:25;4.43;;;2.13;;
7047;SDS011;3565;53.254;10.352;2024-03-25T03:27:32;7.23;;;2.50;;
7047;SDS011;3565;53.254;10.352;2024-03-25T03:30:02;7.13;;;2.43;;
7047;SDS011;3565;53.254;10.352;2024-03-25T03:35:10;5.97;;;2.23;;
7047;SDS011;3565;53.254;10.352;2024-03-25T03:37:40;4.17;;;2.40;;
7047;SDS011;3565;53.254;10.352;2024-03-25T03:40:10;3.87;;;2.47;;
7047;SDS011;3565;53.254;10.352;2024-03-25T03:45:17;3.97;;;2.60;;
7047;SDS011;3565;53.254;10.352;2024-03-25T03:47:47;4.30;;;2.60;;
7047;SDS011;3565;53.254;10.352;2024-03-25T03:50:19;7.80;;;2.60;;
7047;SDS011;3565;53.254;10.352;2024-03-25T03:55:25;5.03;;;2.60;;
7047;SDS011;3565;53.254;10.352;2024-03-25T03:57:55;6.93;;;2.90;;
7047;SDS011;3565;53.254;10.352;2024-03-25T04:00:34;4.53;;;2.63;;
7047;SDS011;3565;53.254;10.352;2024-03-25T04:05:41;5.57;;;2.53;;
7047;SDS011;3565;53.254;10.352;2024-03-25T04:08:10;4.10;;;2.30;;
7047;SDS011;3565;53.254;10.352;2024-03-25T04:10:40;2.67;;;2.30;;
7047;SDS011;3565;53.254;10.352;2024-03-25T04:13:11;3.90;;;2.63;;
7047;SDS011;3565;53.254;10.352;2024-03-25T04:18:17;3.00;;;2.07;;
7047;SDS011;3565;53.254;10.352;2024-03-25T04:23:24;4.50;;;2.20;;
7047;SDS011;3565;53.254;10.352;2024-03-25T04:25:53;3.37;;;2.07;;
7047;SDS011;3565;53.254;10.352;2024-03-25T04:30:59;3.23;;;2.30;;
7047;SDS011;3565;53.254;10.352;2024-03-25T04:33:29;4.60;;;2.20;;
7047;SDS011;3565;53.254;10.352;2024-03-25T04:38:35;4.33;;;2.17;;
7047;SDS011;3565;53.254;10.352;2024-03-25T04:43:41;2.73;;;2.23;;
7047;SDS011;3565;53.254;10.352;2024-03-25T04:46:12;7.40;;;2.43;;
7047;SDS011;3565;53.254;10.352;2024-03-25T04:48:41;2.73;;;2.20;;
7047;SDS011;3565;53.254;10.352;2024-03-25T04:51:11;3.20;;;2.10;;
7047;SDS011;3565;53.254;10.352;2024-03-25T04:56:17;4.67;;;2.10;;
7047;SDS011;3565;53.254;10.352;2024-03-25T04:58:46;9.10;;;2.13;;
7047;SDS011;3565;53.254;10.352;2024-03-25T05:01:15;5.67;;;2.73;;
7047;SDS011;3565;53.254;10.352;2024-03-25T05:06:22;4.63;;;2.67;;
7047;SDS011;3565;53.254;10.352;2024-03-25T05:08:52;4.80;;;2.60;;
7047;SDS011;3565;53.254;10.352;2024-03-25T05:11:30;3.37;;;1.97;;
7047;SDS011;3565;53.254;10.352;2024-03-25T05:16:36;7.27;;;3.50;;
7047;SDS011;3565;53.254;10.352;2024-03-25T05:19:05;3.97;;;2.27;;
7047;SDS011;3565;53.254;10.352;2024-03-25T05:24:11;4.40;;;2.60;;
7047;SDS011;3565;53.254;10.352;2024-03-25T05:26:40;4.53;;;2.43;;
7047;SDS011;3565;53.254;10.352;2024-03-25T05:29:09;5.80;;;2.57;;
7047;SDS011;3565;53.254;10.352;2024-03-25T05:34:16;2.90;;;2.60;;
7047;SDS011;3565;53.254;10.352;2024-03-25T05:36:45;5.03;;;2.60;;
7047;SDS011;3565;53.254;10.352;2024-03-25T05:39:14;6.60;;;2.60;;
7047;SDS011;3565;53.254;10.352;2024-03-25T05:44:22;6.30;;;2.80;;
7047;SDS011;3565;53.254;10.352;2024-03-25T05:46:51;5.03;;;3.00;;
7047;SDS011;3565;53.254;10.352;2024-03-25T05:49:20;5.40;;;2.57;;
7047;SDS011;3565;53.254;10.352;2024-03-25T05:54:27;4.87;;;2.50;;
7047;SDS011;3565;53.254;10.352;2024-03-25T05:56:56;9.83;;;2.90;;
7047;SDS011;3565;53.254;10.352;2024-03-25T05:59:26;8.27;;;2.70;;
7047;SDS011;3565;53.254;10.352;2024-03-25T06:04:33;6.67;;;2.60;;
7047;SDS011;3565;53.254;10.352;2024-03-25T06:07:02;4.80;;;2.47;;
7047;SDS011;3565;53.254;10.352;2024-03-25T06:09:41;6.03;;;2.80;;
7047;SDS011;3565;53.254;10.352;2024-03-25T06:12:10;4.47;;;2.47;;
7047;SDS011;3565;53.254;10.352;2024-03-25T06:17:17;6.27;;;2.53;;
7047;SDS011;3565;53.254;10.352;2024-03-25T06:19:46;7.27;;;2.50;;
7047;SDS011;3565;53.254;10.352;2024-03-25T06:22:16;5.90;;;2.87;;
7047;SDS011;3565;53.254;10.352;2024-03-25T06:27:22;5.00;;;2.90;;
7047;SDS011;3565;53.254;10.352;2024-03-25T06:29:51;5.63;;;2.90;;
7047;SDS011;3565;53.254;10.352;2024-03-25T06:32:22;6.40;;;3.33;;
7047;SDS011;3565;53.254;10.352;2024-03-25T06:37:49;5.63;;;3.20;;
7047;SDS011;3565;53.254;10.352;2024-03-25T06:40:19;6.47;;;3.10;;
7047;SDS011;3565;53.254;10.352;2024-03-25T06:42:58;4.07;;;2.93;;
7047;SDS011;3565;53.254;10.352;2024-03-25T06:45:28;4.47;;;2.60;;
7047;SDS011;3565;53.254;10.352;2024-03-25T06:50:34;4.40;;;2.50;;
7047;SDS011;3565;53.254;10.352;2024-03-25T06:55:42;7.67;;;3.07;;
7047;SDS011;3565;53.254;10.352;2024-03-25T06:58:12;4.57;;;2.93;;
7047;SDS011;3565;53.254;10.352;2024-03-25T07:03:20;4.27;;;2.73;;
7047;SDS011;3565;53.254;10.352;2024-03-25T07:08:27;6.97;;;3.27;;
7047;SDS011;3565;53.254;10.352;2024-03-25T07:13:33;6.20;;;3.20;;
7047;SDS011;3565;53.254;10.352;2024-03-25T07:16:03;4.63;;;2.70;;
7047;SDS011;3565;53.254;10.352;2024-03-25T07:18:34;5.10;;;2.80;;
7047;SDS011;3565;53.254;10.352;2024-03-25T07:21:04;6.43;;;3.00;;
7047;SDS011;3565;53.254;10.352;2024-03-25T07:23:34;5.03;;;2.70;;
7047;SDS011;3565;53.254;10.352;2024-03-25T07:26:03;3.57;;;2.73;;
7047;SDS011;3565;53.254;10.352;2024-03-25T07:28:32;4.63;;;2.90;;
7047;SDS011;3565;53.254;10.352;2024-03-25T07:31:14;4.90;;;3.00;;
7047;SDS011;3565;53.254;10.352;2024-03-25T07:33:43;6.00;;;2.97;;
7047;SDS011;3565;53.254;10.352;2024-03-25T07:36:12;6.93;;;3.03;;
7047;SDS011;3565;53.254;10.352;2024-03-25T07:38:50;5.20;;;3.30;;
7047;SDS011;3565;53.254;10.352;2024-03-25T07:41:19;7.33;;;3.00;;
7047;SDS011;3565;53.254;10.352;2024-03-25T07:43:48;9.57;;;2.97;;
7047;SDS011;3565;53.254;10.352;2024-03-25T07:46:17;6.60;;;3.00;;
7047;SDS011;3565;53.254;10.352;2024-03-25T07:48:47;5.00;;;2.73;;
7047;SDS011;3565;53.254;10.352;2024-03-25T07:51:16;4.23;;;2.93;;
7047;SDS011;3565;53.254;10.352;2024-03-25T07:53:45;8.23;;;3.50;;
7047;SDS011;3565;53.254;10.352;2024-03-25T07:56:15;3.87;;;2.70;;
7047;SDS011;3565;53.254;10.352;2024-03-25T07:58:44;7.33;;;3.57;;
7047;SDS011;3565;53.254;10.352;2024-03-25T08:01:15;6.23;;;2.97;;
7047;SDS011;3565;53.254;10.352;2024-03-25T08:03:44;3.80;;;2.83;;
7047;SDS011;3565;53.254;10.352;2024-03-25T08:06:12;8.60;;;3.03;;
7047;SDS011;3565;53.254;10.352;2024-03-25T08:08:41;8.20;;;3.13;;
7047;SDS011;3565;53.254;10.352;2024-03-25T08:11:10;5.87;;;2.63;;
7047;SDS011;3565;53.254;10.352;2024-03-25T08:13:39;7.70;;;2.83;;
7047;SDS011;3565;53.254;10.352;2024-03-25T08:16:08;4.90;;;2.80;;
7047;SDS011;3565;53.254;10.352;2024-03-25T08:18:37;7.40;;;2.60;;
7047;SDS011;3565;53.254;10.352;2024-03-25T08:21:06;6.03;;;2.80;;
7047;SDS011;3565;53.254;10.352;2024-03-25T08:23:35;5.63;;;2.83;;
7047;SDS011;3565;53.254;10.352;2024-03-25T08:26:04;6.20;;;2.87;;
7047;SDS011;3565;53.254;10.352;2024-03-25T08:28:35;7.27;;;2.20;;
7047;SDS011;3565;53.254;10.352;2024-03-25T08:31:04;4.37;;;2.70;;
7047;SDS011;3565;53.254;10.352;2024-03-25T08:33:33;5.47;;;2.63;;
7047;SDS011;3565;53.254;10.352;2024-03-25T08:36:02;6.87;;;2.77;;
7047;SDS011;3565;53.254;10.352;2024-03-25T08:38:32;6.43;;;2.77;;
7047;SDS011;3565;53.254;10.352;2024-03-25T08:41:01;3.93;;;2.70;;
7047;SDS011;3565;53.254;10.352;2024-03-25T08:43:31;4.60;;;2.33;;
7047;SDS011;3565;53.254;10.352;2024-03-25T08:46:00;6.90;;;2.50;;
7047;SDS011;3565;53.254;10.352;2024-03-25T08:48:30;5.20;;;2.90;;
7047;SDS011;3565;53.254;10.352;2024-03-25T08:50:58;6.83;;;2.80;;
7047;SDS011;3565;53.254;10.352;2024-03-25T08:53:27;4.70;;;2.60;;
7047;SDS011;3565;53.254;10.352;2024-03-25T08:55:56;2.93;;;2.30;;
7047;SDS011;3565;53.254;10.352;2024-03-25T08:58:25;4.93;;;2.30;;
7047;SDS011;3565;53.254;10.352;2024-03-25T09:00:54;5.20;;;2.20;;
7047;SDS011;3565;53.254;10.352;2024-03-25T09:03:23;4.73;;;2.20;;
7047;SDS011;3565;53.254;10.352;2024-03-25T09:05:52;4.50;;;2.70;;
7047;SDS011;3565;53.254;10.352;2024-03-25T09:08:31;7.73;;;3.40;;
7047;SDS011;3565;53.254;10.352;2024-03-25T09:11:02;6.60;;;2.43;;
7047;SDS011;3565;53.254;10.352;2024-03-25T09:13:33;8.23;;;3.93;;
7047;SDS011;3565;53.254;10.352;2024-03-25T09:16:02;5.57;;;2.33;;
7047;SDS011;3565;53.254;10.352;2024-03-25T09:21:09;3.90;;;2.00;;
7047;SDS011;3565;53.254;10.352;2024-03-25T09:23:39;7.33;;;2.50;;
7047;SDS011;3565;53.254;10.352;2024-03-25T09:26:08;4.77;;;2.20;;
7047;SDS011;3565;53.254;10.352;2024-03-25T09:28:37;5.23;;;2.47;;
7047;SDS011;3565;53.254;10.352;2024-03-25T09:31:06;8.03;;;2.77;;
7047;SDS011;3565;53.254;10.352;2024-03-25T09:33:35;4.90;;;2.13;;
7047;SDS011;3565;53.254;10.352;2024-03-25T09:36:04;7.80;;;2.53;;
7047;SDS011;3565;53.254;10.352;2024-03-25T09:38:43;6.23;;;2.37;;
7047;SDS011;3565;53.254;10.352;2024-03-25T09:41:12;8.80;;;2.40;;
7047;SDS011;3565;53.254;10.352;2024-03-25T09:43:42;7.63;;;2.67;;
7047;SDS011;3565;53.254;10.352;2024-03-25T09:46:13;6.17;;;2.33;;
7047;SDS011;3565;53.254;10.352;2024-03-25T09:51:20;9.33;;;2.20;;
7047;SDS011;3565;53.254;10.352;2024-03-25T09:53:49;5.50;;;2.27;;
7047;SDS011;3565;53.254;10.352;2024-03-25T09:56:18;9.07;;;2.57;;
7047;SDS011;3565;53.254;10.352;2024-03-25T09:58:48;8.37;;;2.60;;
7047;SDS011;3565;53.254;10.352;2024-03-25T10:01:17;9.23;;;2.33;;
7047;SDS011;3565;53.254;10.352;2024-03-25T10:03:47;8.50;;;2.77;;
7047;SDS011;3565;53.254;10.352;2024-03-25T10:06:25;7.87;;;2.57;;
7047;SDS011;3565;53.254;10.352;2024-03-25T10:08:54;9.43;;;2.20;;
7047;SDS011;3565;53.254;10.352;2024-03-25T10:11:25;6.93;;;2.20;;
7047;SDS011;3565;53.254;10.352;2024-03-25T10:13:56;5.93;;;1.87;;
7047;SDS011;3565;53.254;10.352;2024-03-25T10:16:25;3.43;;;1.87;;
7047;SDS011;3565;53.254;10.352;2024-03-25T10:18:54;2.10;;;1.50;;
7047;SDS011;3565;53.254;10.352;2024-03-25T10:21:23;4.40;;;2.03;;
7047;SDS011;3565;53.254;10.352;2024-03-25T10:23:52;6.30;;;2.43;;
7047;SDS011;3565;53.254;10.352;2024-03-25T10:26:28;4.27;;;1.70;;
7047;SDS011;3565;53.254;10.352;2024-03-25T10:29:01;6.63;;;1.70;;
7047;SDS011;3565;53.254;10.352;2024-03-25T10:31:32;5.77;;;1.73;;
7047;SDS011;3565;53.254;10.352;2024-03-25T10:34:02;5.40;;;1.87;;
7047;SDS011;3565;53.254;10.352;2024-03-25T10:36:31;3.77;;;1.73;;
7047;SDS011;3565;53.254;10.352;2024-03-25T10:39:01;6.87;;;1.93;;
7047;SDS011;3565;53.254;10.352;2024-03-25T10:41:33;5.37;;;2.13;;
7047;SDS011;3565;53.254;10.352;2024-03-25T10:44:04;4.40;;;2.00;;
7047;SDS011;3565;53.254;10.352;2024-03-25T10:46:35;4.57;;;2.27;;
7047;SDS011;3565;53.254;10.352;2024-03-25T10:51:41;5.30;;;2.00;;
7047;SDS011;3565;53.254;10.352;2024-03-25T10:54:12;3.17;;;2.00;;
7047;SDS011;3565;53.254;10.352;2024-03-25T10:56:42;7.70;;;2.33;;
7047;SDS011;3565;53.254;10.352;2024-03-25T10:59:11;4.20;;;2.07;;
7047;SDS011;3565;53.254;10.352;2024-03-25T11:01:41;4.03;;;1.90;;
7047;SDS011;3565;53.254;10.352;2024-03-25T11:04:10;3.10;;;2.20;;
7047;SDS011;3565;53.254;10.352;2024-03-25T11:06:40;3.20;;;1.97;;
7047;SDS011;3565;53.254;10.352;2024-03-25T11:11:46;4.20;;;1.87;;
7047;SDS011;3565;53.254;10.352;2024-03-25T11:14:16;2.80;;;1.57;;
7047;SDS011;3565;53.254;10.352;2024-03-25T11:16:51;5.93;;;1.77;;
7047;SDS011;3565;53.254;10.352;2024-03-25T11:22:07;3.37;;;1.60;;
7047;SDS011;3565;53.254;10.352;2024-03-25T11:24:37;5.00;;;1.60;;
7047;SDS011;3565;53.254;10.352;2024-03-25T11:27:20;4.87;;;2.03;;
7047;SDS011;3565;53.254;10.352;2024-03-25T11:29:49;4.90;;;1.60;;
7047;SDS011;3565;53.254;10.352;2024-03-25T11:32:18;6.30;;;1.67;;
7047;SDS011;3565;53.254;10.352;2024-03-25T11:37:27;3.33;;;1.77;;
7047;SDS011;3565;53.254;10.352;2024-03-25T11:40:01;5.70;;;1.90;;
7047;SDS011;3565;53.254;10.352;2024-03-25T11:42:40;4.63;;;2.10;;
7047;SDS011;3565;53.254;10.352;2024-03-25T11:45:13;5.90;;;1.90;;
7047;SDS011;3565;53.254;10.352;2024-03-25T11:47:42;5.57;;;2.20;;
7047;SDS011;3565;53.254;10.352;2024-03-25T11:50:12;9.60;;;2.30;;
7047;SDS011;3565;53.254;10.352;2024-03-25T11:52:42;4.83;;;1.70;;
7047;SDS011;3565;53.254;10.352;2024-03-25T11:55:16;7.47;;;2.37;;
7047;SDS011;3565;53.254;10.352;2024-03-25T11:57:45;4.67;;;2.03;;
7047;SDS011;3565;53.254;10.352;2024-03-25T12:00:16;2.67;;;1.70;;
7047;SDS011;3565;53.254;10.352;2024-03-25T12:02:46;5.40;;;2.37;;
7047;SDS011;3565;53.254;10.352;2024-03-25T12:05:15;4.37;;;1.90;;
7047;SDS011;3565;53.254;10.352;2024-03-25T12:07:44;4.80;;;2.00;;
7047;SDS011;3565;53.254;10.352;2024-03-25T12:10:14;3.93;;;2.23;;
7047;SDS011;3565;53.254;10.352;2024-03-25T12:13:00;6.47;;;2.40;;
7047;SDS011;3565;53.254;10.352;2024-03-25T12:15:39;6.10;;;2.00;;
7047;SDS011;3565;53.254;10.352;2024-03-25T12:18:09;5.17;;;2.27;;
7047;SDS011;3565;53.254;10.352;2024-03-25T12:20:38;5.63;;;2.10;;
7047;SDS011;3565;53.254;10.352;2024-03-25T12:25:48;4.97;;;2.00;;
7047;SDS011;3565;53.254;10.352;2024-03-25T12:28:17;4.10;;;1.83;;
7047;SDS011;3565;53.254;10.352;2024-03-25T12:30:49;3.40;;;2.03;;
7047;SDS011;3565;53.254;10.352;2024-03-25T12:33:19;4.73;;;1.83;;
7047;SDS011;3565;53.254;10.352;2024-03-25T12:35:49;4.57;;;2.23;;
7047;SDS011;3565;53.254;10.352;2024-03-25T12:38:22;3.43;;;1.70;;
7047;SDS011;3565;53.254;10.352;2024-03-25T12:40:51;5.67;;;2.03;;
7047;SDS011;3565;53.254;10.352;2024-03-25T12:43:21;5.53;;;1.77;;
7047;SDS011;3565;53.254;10.352;2024-03-25T12:45:50;4.03;;;1.77;;
7047;SDS011;3565;53.254;10.352;2024-03-25T12:48:19;3.27;;;1.60;;
7047;SDS011;3565;53.254;10.352;2024-03-25T12:53:25;5.47;;;1.90;;
7047;SDS011;3565;53.254;10.352;2024-03-25T12:55:54;4.30;;;2.20;;
7047;SDS011;3565;53.254;10.352;2024-03-25T12:58:23;4.67;;;1.90;;
7047;SDS011;3565;53.254;10.352;2024-03-25T13:00:52;4.27;;;2.00;;
7047;SDS011;3565;53.254;10.352;2024-03-25T13:03:22;3.77;;;1.90;;
7047;SDS011;3565;53.254;10.352;2024-03-25T13:08:28;5.80;;;2.20;;
7047;SDS011;3565;53.254;10.352;2024-03-25T13:13:34;5.67;;;2.07;;
7047;SDS011;3565;53.254;10.352;2024-03-25T13:16:04;6.57;;;2.03;;
7047;SDS011;3565;53.254;10.352;2024-03-25T13:18:33;2.80;;;1.80;;
7047;SDS011;3565;53.254;10.352;2024-03-25T13:21:02;3.40;;;1.90;;
7047;SDS011;3565;53.254;10.352;2024-03-25T13:23:32;4.47;;;2.07;;
7047;SDS011;3565;53.254;10.352;2024-03-25T13:26:01;6.00;;;2.37;;
7047;SDS011;3565;53.254;10.352;2024-03-25T13:28:30;5.13;;;1.97;;
7047;SDS011;3565;53.254;10.352;2024-03-25T13:33:36;3.83;;;1.77;;
7047;SDS011;3565;53.254;10.352;2024-03-25T13:36:05;4.10;;;1.77;;
7047;SDS011;3565;53.254;10.352;2024-03-25T13:38:35;6.00;;;2.00;;
7047;SDS011;3565;53.254;10.352;2024-03-25T13:41:04;5.70;;;1.80;;
7047;SDS011;3565;53.254;10.352;2024-03-25T13:46:10;5.23;;;2.00;;
7047;SDS011;3565;53.254;10.352;2024-03-25T13:48:40;4.93;;;2.00;;
7047;SDS011;3565;53.254;10.352;2024-03-25T13:51:08;3.67;;;1.53;;
7047;SDS011;3565;53.254;10.352;2024-03-25T13:53:37;5.00;;;1.67;;
7047;SDS011;3565;53.254;10.352;2024-03-25T13:58:43;2.33;;;1.90;;
7047;SDS011;3565;53.254;10.352;2024-03-25T14:01:13;3.53;;;1.60;;
7047;SDS011;3565;53.254;10.352;2024-03-25T14:03:42;2.33;;;1.30;;
7047;SDS011;3565;53.254;10.352;2024-03-25T14:06:12;5.37;;;1.77;;
7047;SDS011;3565;53.254;10.352;2024-03-25T14:08:41;5.40;;;1.80;;
7047;SDS011;3565;53.254;10.352;2024-03-25T14:11:11;3.33;;;1.80;;
7047;SDS011;3565;53.254;10.352;2024-03-25T14:16:18;3.30;;;1.63;;
7047;SDS011;3565;53.254;10.352;2024-03-25T14:18:47;4.83;;;1.93;;
7047;SDS011;3565;53.254;10.352;2024-03-25T14:21:15;5.00;;;1.73;;
7047;SDS011;3565;53.254;10.352;2024-03-25T14:26:22;2.70;;;1.70;;
7047;SDS011;3565;53.254;10.352;2024-03-25T14:31:28;5.00;;;1.93;;
7047;SDS011;3565;53.254;10.352;2024-03-25T14:33:57;7.27;;;2.00;;
7047;SDS011;3565;53.254;10.352;2024-03-25T14:36:26;5.97;;;2.20;;
7047;SDS011;3565;53.254;10.352;2024-03-25T14:41:38;4.30;;;2.03;;
7047;SDS011;3565;53.254;10.352;2024-03-25T14:44:08;5.67;;;2.57;;
7047;SDS011;3565;53.254;10.352;2024-03-25T14:46:37;5.43;;;2.10;;
7047;SDS011;3565;53.254;10.352;2024-03-25T14:51:45;1.80;;;1.63;;
7047;SDS011;3565;53.254;10.352;2024-03-25T14:54:14;5.40;;;1.83;;
7047;SDS011;3565;53.254;10.352;2024-03-25T14:59:22;2.23;;;1.60;;
7047;SDS011;3565;53.254;10.352;2024-03-25T15:01:51;1.70;;;1.30;;
7047;SDS011;3565;53.254;10.352;2024-03-25T15:04:20;2.60;;;1.70;;
7047;SDS011;3565;53.254;10.352;2024-03-25T15:09:26;3.70;;;1.47;;
7047;SDS011;3565;53.254;10.352;2024-03-25T15:11:55;4.13;;;1.60;;
7047;SDS011;3565;53.254;10.352;2024-03-25T15:14:24;3.27;;;1.70;;
7047;SDS011;3565;53.254;10.352;2024-03-25T15:16:57;3.23;;;1.67;;
7047;SDS011;3565;53.254;10.352;2024-03-25T15:19:35;3.53;;;1.70;;
7047;SDS011;3565;53.254;10.352;2024-03-25T15:22:04;3.27;;;1.43;;
7047;SDS011;3565;53.254;10.352;2024-03-25T15:24:33;4.73;;;1.60;;
7047;SDS011;3565;53.254;10.352;2024-03-25T15:29:39;5.07;;;1.80;;
7047;SDS011;3565;53.254;10.352;2024-03-25T15:32:08;3.07;;;1.60;;
7047;SDS011;3565;53.254;10.352;2024-03-25T15:34:38;1.70;;;1.57;;
7047;SDS011;3565;53.254;10.352;2024-03-25T15:39:45;3.37;;;1.50;;
7047;SDS011;3565;53.254;10.352;2024-03-25T15:42:14;5.63;;;1.90;;
7047;SDS011;3565;53.254;10.352;2024-03-25T15:44:43;2.33;;;1.40;;
7047;SDS011;3565;53.254;10.352;2024-03-25T15:47:12;3.13;;;1.50;;
7047;SDS011;3565;53.254;10.352;2024-03-25T15:49:41;2.43;;;1.40;;
7047;SDS011;3565;53.254;10.352;2024-03-25T15:52:13;4.40;;;1.70;;
7047;SDS011;3565;53.254;10.352;2024-03-25T15:54:42;1.97;;;1.60;;
7047;SDS011;3565;53.254;10.352;2024-03-25T15:57:20;2.93;;;1.73;;
7047;SDS011;3565;53.254;10.352;2024-03-25T15:59:49;9.77;;;6.10;;
7047;SDS011;3565;53.254;10.352;2024-03-25T16:02:18;3.77;;;1.60;;
7047;SDS011;3565;53.254;10.352;2024-03-25T16:04:47;3.23;;;1.80;;
7047;SDS011;3565;53.254;10.352;2024-03-25T16:07:16;1.60;;;1.50;;
7047;SDS011;3565;53.254;10.352;2024-03-25T16:09:54;3.30;;;2.50;;
7047;SDS011;3565;53.254;10.352;2024-03-25T16:12:24;3.97;;;2.10;;
7047;SDS011;3565;53.254;10.352;2024-03-25T16:14:52;11.03;;;8.57;;
7047;SDS011;3565;53.254;10.352;2024-03-25T16:17:22;6.13;;;5.07;;
7047;SDS011;3565;53.254;10.352;2024-03-25T16:19:51;3.00;;;1.90;;
7047;SDS011;3565;53.254;10.352;2024-03-25T16:22:29;5.47;;;2.13;;
7047;SDS011;3565;53.254;10.352;2024-03-25T16:24:59;2.80;;;1.80;;
7047;SDS011;3565;53.254;10.352;2024-03-25T16:27:29;2.50;;;1.90;;
7047;SDS011;3565;53.254;10.352;2024-03-25T16:29:58;2.57;;;1.90;;
7047;SDS011;3565;53.254;10.352;2024-03-25T16:35:09;4.20;;;3.07;;
7047;SDS011;3565;53.254;10.352;2024-03-25T16:37:38;4.27;;;2.43;;
7047;SDS011;3565;53.254;10.352;2024-03-25T16:42:46;3.40;;;2.23;;
7047;SDS011;3565;53.254;10.352;2024-03-25T16:45:15;3.73;;;3.10;;
7047;SDS011;3565;53.254;10.352;2024-03-25T16:47:44;3.60;;;2.23;;
7047;SDS011;3565;53.254;10.352;2024-03-25T16:50:13;3.17;;;2.40;;
7047;SDS011;3565;53.254;10.352;2024-03-25T16:52:43;4.90;;;1.87;;
7047;SDS011;3565;53.254;10.352;2024-03-25T16:55:11;2.47;;;1.90;;
7047;SDS011;3565;53.254;10.352;2024-03-25T16:57:50;4.63;;;2.37;;
7047;SDS011;3565;53.254;10.352;2024-03-25T17:00:19;3.43;;;2.40;;
7047;SDS011;3565;53.254;10.352;2024-03-25T17:02:48;2.90;;;1.97;;
7047;SDS011;3565;53.254;10.352;2024-03-25T17:05:17;2.57;;;2.00;;
7047;SDS011;3565;53.254;10.352;2024-03-25T17:07:46;2.73;;;1.80;;
7047;SDS011;3565;53.254;10.352;2024-03-25T17:10:25;1.93;;;1.50;;
7047;SDS011;3565;53.254;10.352;2024-03-25T17:12:55;1.90;;;1.60;;
7047;SDS011;3565;53.254;10.352;2024-03-25T17:15:24;3.20;;;1.90;;
7047;SDS011;3565;53.254;10.352;2024-03-25T17:17:53;4.73;;;2.20;;
7047;SDS011;3565;53.254;10.352;2024-03-25T17:20:22;2.03;;;1.70;;
7047;SDS011;3565;53.254;10.352;2024-03-25T17:23:00;3.37;;;1.80;;
7047;SDS011;3565;53.254;10.352;2024-03-25T17:28:07;4.00;;;1.93;;
7047;SDS011;3565;53.254;10.352;2024-03-25T17:30:45;2.87;;;2.20;;
7047;SDS011;3565;53.254;10.352;2024-03-25T17:33:14;3.07;;;2.23;;
7047;SDS011;3565;53.254;10.352;2024-03-25T17:35:43;4.10;;;2.67;;
7047;SDS011;3565;53.254;10.352;2024-03-25T17:38:12;4.27;;;2.80;;
7047;SDS011;3565;53.254;10.352;2024-03-25T17:40:41;3.40;;;2.67;;
7047;SDS011;3565;53.254;10.352;2024-03-25T17:43:19;5.13;;;2.90;;
7047;SDS011;3565;53.254;10.352;2024-03-25T17:45:48;4.03;;;2.83;;
7047;SDS011;3565;53.254;10.352;2024-03-25T17:48:17;6.47;;;3.00;;
7047;SDS011;3565;53.254;10.352;2024-03-25T17:53:30;5.27;;;3.20;;
7047;SDS011;3565;53.254;10.352;2024-03-25T17:55:59;6.60;;;3.30;;
7047;SDS011;3565;53.254;10.352;2024-03-25T17:58:28;3.23;;;2.73;;
7047;SDS011;3565;53.254;10.352;2024-03-25T18:00:59;5.80;;;3.20;;
7047;SDS011;3565;53.254;10.352;2024-03-25T18:06:06;5.10;;;3.30;;
7047;SDS011;3565;53.254;10.352;2024-03-25T18:08:36;4.87;;;3.43;;
7047;SDS011;3565;53.254;10.352;2024-03-25T18:11:05;4.33;;;3.73;;
7047;SDS011;3565;53.254;10.352;2024-03-25T18:13:34;7.07;;;4.30;;
7047;SDS011;3565;53.254;10.352;2024-03-25T18:18:40;8.13;;;5.23;;
7047;SDS011;3565;53.254;10.352;2024-03-25T18:21:09;10.30;;;5.20;;
7047;SDS011;3565;53.254;10.352;2024-03-25T18:23:38;10.77;;;5.43;;
7047;SDS011;3565;53.254;10.352;2024-03-25T18:26:07;10.73;;;6.23;;
7047;SDS011;3565;53.254;10.352;2024-03-25T18:28:36;13.60;;;6.40;;
7047;SDS011;3565;53.254;10.352;2024-03-25T18:31:14;13.10;;;7.73;;
7047;SDS011;3565;53.254;10.352;2024-03-25T18:33:43;15.27;;;6.90;;